Thunder radar more information blitzortung!


Radar de pluja more information rain snow radar


Visita la nostra xarxa de llocs de meteo:

Template documentation
and downloads

And another site



No particular awareness of the weather is required.    There are no Weather-warnings

Pagina Historial Weather Underground text

Diari Resum Octubre 13, 2017 Unitats:  Imperial    Mètric   Tant
« Previous Dia
SegĂźent Dia »
Diari Setmana Mensual Anual Personalitzada
  Maxima: Minima: Media:
Temperatura: TemperatureC °F 15.0 °F 19.7 °F
Punt de rosada: DewpointC °F 13.5 °F 15.7 °F
Humitat: Humidity % 59 % 79 %
Wind Speed: WindSpeedKMH mph 0.0 mph 4.2 mph
RĂ fegues de vent: WindSpeedGustKMH mph - -
Vent:- - SSE
Pression baro: PressurehPa in 1023.9 in -
Precipitacions: 0.0 in    
Historical Graphs
 
 
Dades de taula per Octubre 13, 2017
Temps Temperatura Punt de rosada Pression baro Vent Wind Speed RĂ fegues de vent Humitat Rainfall Rate (Hourly)
TemperatureC °F DewpointC °F PressurehPa in Calm     Humidity % HourlyPrecipMM in
00:01 18.9 °F 16.5 °F 1026.0 in SW 5.6 mph 5.6 mph 86 % 0.0 in
00:06 18.9 °F 16.5 °F 1026.0 in WNW 1.9 mph   86 % 0.0 in
00:11 18.9 °F 16.5 °F 1026.0 in NW 1.9 mph 1.9 mph 86 % 0.0 in
00:16 18.9 °F 16.7 °F 1026.0 in WSW 3.7 mph 3.7 mph 87 % 0.0 in
00:21 18.8 °F 16.6 °F 1026.0 in Calm     87 % 0.0 in
00:26 18.8 °F 16.8 °F 1026.0 in Calm     88 % 0.0 in
00:31 18.8 °F 16.8 °F 1026.0 in Calm     88 % 0.0 in
00:36 18.8 °F 16.8 °F 1026.0 in WSW 1.9 mph   88 % 0.0 in
00:41 18.8 °F 16.8 °F 1026.0 in Calm     88 % 0.0 in
00:46 18.8 °F 16.8 °F 1026.0 in Calm     88 % 0.0 in
00:51 18.8 °F 16.8 °F 1026.0 in Calm     88 % 0.0 in
00:56 18.8 °F 16.8 °F 1026.0 in Calm     88 % 0.0 in
01:01 18.8 °F 16.8 °F 1026.0 in Calm     88 % 0.0 in
01:06 18.7 °F 16.7 °F 1026.0 in WSW 1.9 mph 1.9 mph 88 % 0.0 in
01:11 18.7 °F 16.7 °F 1026.0 in SW 1.9 mph   88 % 0.0 in
01:16 18.6 °F 16.6 °F 1026.0 in Calm     88 % 0.0 in
01:21 18.7 °F 16.8 °F 1026.0 in Calm     89 % 0.0 in
01:26 18.8 °F 16.9 °F 1026.0 in SW 1.9 mph   89 % 0.0 in
01:31 18.8 °F 16.9 °F 1026.0 in SW 1.9 mph   89 % 0.0 in
01:36 18.9 °F 17.1 °F 1026.0 in West 3.7 mph 3.7 mph 89 % 0.0 in
01:37 18.9 °F 17.1 °F 1026.0 in West 2.3 mph 2.3 mph 89 % 0.0 in
01:42 19.0 °F 16.9 °F 1024.9 in WSW 3.7 mph 3.7 mph 88 % 0.0 in
01:47 19.0 °F 16.9 °F 1024.9 in SW 2.3 mph 2.3 mph 88 % 0.0 in
01:52 18.9 °F 17.1 °F 1024.9 in SW 3.7 mph   89 % 0.0 in
01:57 18.8 °F 16.8 °F 1026.0 in SW 3.7 mph 3.7 mph 88 % 0.0 in
02:02 18.8 °F 16.8 °F 1026.0 in WSW 5.6 mph 5.6 mph 88 % 0.0 in
02:07 18.9 °F 16.9 °F 1026.0 in SW 3.7 mph 3.7 mph 88 % 0.0 in
02:12 18.9 °F 16.9 °F 1026.0 in West 1.9 mph 1.9 mph 88 % 0.0 in
02:17 18.9 °F 16.9 °F 1026.0 in WSW 1.9 mph   88 % 0.0 in
02:22 18.9 °F 16.9 °F 1026.0 in SW 4.7 mph   88 % 0.0 in
02:27 19.0 °F 16.8 °F 1026.0 in West 3.7 mph 3.7 mph 87 % 0.0 in
02:32 19.0 °F 16.8 °F 1026.0 in WSW 5.6 mph 5.6 mph 87 % 0.0 in
02:37 19.0 °F 16.8 °F 1026.0 in West 3.7 mph 3.7 mph 87 % 0.0 in
02:42 18.9 °F 16.9 °F 1026.0 in WSW 3.7 mph 3.9 mph 88 % 0.0 in
02:47 18.8 °F 16.8 °F 1026.0 in WSW 5.6 mph 5.6 mph 88 % 0.0 in
02:52 18.7 °F 16.7 °F 1026.0 in SW 2.3 mph 2.3 mph 88 % 0.0 in
02:57 18.7 °F 16.7 °F 1026.0 in WSW 3.7 mph 3.7 mph 88 % 0.0 in
03:02 18.6 °F 16.6 °F 1026.0 in West 3.7 mph   88 % 0.0 in
03:07 18.5 °F 16.5 °F 1026.0 in Calm     88 % 0.0 in
03:12 18.0 °F 15.8 °F 1026.0 in NNE 3.2 mph 3.2 mph 87 % 0.0 in
03:17 17.8 °F 15.6 °F 1026.0 in NNE 1.9 mph 1.9 mph 87 % 0.0 in
03:22 17.6 °F 15.4 °F 1026.0 in NE 1.9 mph   87 % 0.0 in
03:27 17.5 °F 15.3 °F 1024.9 in Calm     87 % 0.0 in
03:32 17.4 °F 15.4 °F 1024.9 in Calm     88 % 0.0 in
03:37 17.4 °F 15.4 °F 1024.9 in Calm     88 % 0.0 in
03:42 17.3 °F 15.3 °F 1026.0 in Calm     88 % 0.0 in
03:47 17.1 °F 15.1 °F 1026.0 in Calm     88 % 0.0 in
03:52 16.9 °F 14.9 °F 1026.0 in SW 3.7 mph 3.7 mph 88 % 0.0 in
03:57 16.8 °F 14.8 °F 1026.0 in WSW 3.7 mph 3.7 mph 88 % 0.0 in
04:02 16.7 °F 14.7 °F 1026.0 in SW 1.9 mph 1.9 mph 88 % 0.0 in
04:03 16.7 °F 14.7 °F 1026.0 in SW 1.9 mph 1.9 mph 88 % 0.0 in
04:08 16.6 °F 14.6 °F 1026.0 in Calm     88 % 0.0 in
04:13 16.6 °F 14.8 °F 1026.0 in WSW 3.5 mph 3.5 mph 89 % 0.0 in
04:18 16.5 °F 14.7 °F 1026.0 in Calm     89 % 0.0 in
04:23 16.5 °F 14.7 °F 1026.0 in WSW 3.7 mph 3.7 mph 89 % 0.0 in
04:28 16.4 °F 14.6 °F 1026.0 in Calm     89 % 0.0 in
04:33 16.4 °F 14.6 °F 1026.0 in SW 3.7 mph 3.7 mph 89 % 0.0 in
04:38 16.2 °F 14.4 °F 1026.0 in SW 2.3 mph   89 % 0.0 in
04:43 16.1 °F 14.3 °F 1026.0 in SW 2.3 mph 2.3 mph 89 % 0.0 in
04:48 16.1 °F 14.3 °F 1026.0 in SW 2.6 mph 2.6 mph 89 % 0.0 in
04:53 16.0 °F 14.2 °F 1026.0 in Calm     89 % 0.0 in
04:58 15.9 °F 14.1 °F 1026.0 in WSW 1.9 mph 1.9 mph 89 % 0.0 in
05:03 15.9 °F 14.1 °F 1026.0 in WSW 2.3 mph 2.3 mph 89 % 0.0 in
05:08 15.9 °F 14.3 °F 1026.0 in WSW 2.3 mph   90 % 0.0 in
05:13 15.8 °F 14.2 °F 1026.0 in WSW 2.6 mph 2.6 mph 90 % 0.0 in
05:18 15.8 °F 14.0 °F 1026.0 in WSW 2.3 mph 2.3 mph 89 % 0.0 in
05:23 15.6 °F 13.8 °F 1026.0 in WSW 2.6 mph 2.6 mph 89 % 0.0 in
05:28 15.6 °F 13.8 °F 1024.9 in WSW 1.9 mph 1.9 mph 89 % 0.0 in
05:33 15.6 °F 13.9 °F 1024.9 in SW 3.7 mph 3.7 mph 90 % 0.0 in
05:38 15.5 °F 13.9 °F 1024.9 in SW 2.6 mph 2.6 mph 90 % 0.0 in
05:43 15.5 °F 13.9 °F 1026.0 in SW 2.3 mph 2.6 mph 90 % 0.0 in
05:48 15.4 °F 13.8 °F 1026.0 in SW 3.7 mph 3.7 mph 90 % 0.0 in
05:53 15.3 °F 13.5 °F 1026.0 in SW 3.7 mph 3.9 mph 89 % 0.0 in
05:58 15.3 °F 13.7 °F 1026.0 in SW 1.9 mph 1.9 mph 90 % 0.0 in
06:03 15.3 °F 13.7 °F 1026.0 in SW 3.7 mph 3.7 mph 90 % 0.0 in
06:08 15.3 °F 13.7 °F 1026.0 in Calm     90 % 0.0 in
06:13 15.4 °F 13.9 °F 1026.0 in Calm     91 % 0.0 in
06:23 15.4 °F 13.9 °F 1026.0 in Calm     91 % 0.0 in
06:28 15.4 °F 13.9 °F 1026.0 in Calm     91 % 0.0 in
06:33 15.3 °F 13.8 °F 1026.0 in Calm     91 % 0.0 in
06:38 15.3 °F 13.8 °F 1026.0 in SW 1.9 mph 2.3 mph 91 % 0.0 in
06:43 15.3 °F 13.8 °F 1026.0 in SW 2.3 mph   91 % 0.0 in
06:48 15.2 °F 13.7 °F 1026.0 in SW 2.3 mph 2.3 mph 91 % 0.0 in
06:53 15.2 °F 13.7 °F 1026.0 in SW 3.9 mph 3.9 mph 91 % 0.0 in
06:58 15.2 °F 13.7 °F 1026.0 in SW 3.7 mph 3.7 mph 91 % 0.0 in
07:03 15.2 °F 13.7 °F 1026.0 in SW 3.9 mph 3.9 mph 91 % 0.0 in
07:08 15.2 °F 13.7 °F 1026.0 in SW 3.7 mph 3.7 mph 91 % 0.0 in
07:13 15.1 °F 13.7 °F 1026.0 in SW 3.7 mph 3.7 mph 91 % 0.0 in
07:18 15.1 °F 13.7 °F 1026.0 in SSW 5.6 mph 5.6 mph 91 % 0.0 in
07:23 15.1 °F 13.7 °F 1026.0 in SW 3.7 mph 3.7 mph 91 % 0.0 in
07:28 15.0 °F 13.6 °F 1026.0 in SW 3.7 mph 3.7 mph 91 % 0.0 in
07:33 15.1 °F 13.7 °F 1026.0 in SW 4.2 mph 4.2 mph 91 % 0.0 in
07:38 15.2 °F 13.7 °F 1026.0 in WSW 5.6 mph 5.6 mph 91 % 0.0 in
07:43 15.1 °F 13.8 °F 1026.0 in WSW 2.3 mph 2.3 mph 92 % 0.0 in
07:48 15.1 °F 13.8 °F 1026.0 in SW 3.7 mph 3.7 mph 92 % 0.0 in
07:53 15.1 °F 13.8 °F 1026.0 in SW 1.9 mph 1.9 mph 92 % 0.0 in
07:58 15.1 °F 13.8 °F 1026.0 in Calm     92 % 0.0 in
08:03 15.1 °F 14.0 °F 1026.0 in Calm     93 % 0.0 in
08:08 15.0 °F 13.9 °F 1026.0 in Calm     93 % 0.0 in
08:13 15.0 °F 13.9 °F 1026.0 in Calm     93 % 0.0 in
08:18 15.0 °F 13.9 °F 1026.0 in Calm     93 % 0.0 in
08:23 15.0 °F 13.9 °F 1026.0 in Calm     93 % 0.0 in
08:28 15.1 °F 14.0 °F 1026.0 in Calm     93 % 0.0 in
08:33 15.2 °F 14.1 °F 1026.0 in Calm     93 % 0.0 in
08:38 15.3 °F 14.3 °F 1026.0 in Calm     94 % 0.0 in
08:43 15.3 °F 14.3 °F 1026.0 in Calm     94 % 0.0 in
08:48 15.1 °F 14.0 °F 1026.0 in WSW 3.7 mph 3.7 mph 93 % 0.0 in
08:53 15.0 °F 13.9 °F 1026.0 in SW 2.3 mph 2.3 mph 93 % 0.0 in
08:54 15.0 °F 13.9 °F 1026.0 in SW 3.7 mph 3.7 mph 93 % 0.0 in
08:59 15.0 °F 13.9 °F 1026.0 in WSW 3.7 mph 3.7 mph 93 % 0.0 in
09:04 15.1 °F 14.0 °F 1026.0 in SW 4.7 mph 4.7 mph 93 % 0.0 in
09:09 15.2 °F 14.1 °F 1026.0 in SW 3.7 mph 3.7 mph 93 % 0.0 in
09:14 15.3 °F 14.2 °F 1026.0 in SW 5.6 mph 5.6 mph 93 % 0.0 in
09:19 15.4 °F 14.3 °F 1026.0 in WSW 5.3 mph 5.3 mph 93 % 0.0 in
09:24 15.3 °F 14.2 °F 1026.0 in SW 5.6 mph 5.6 mph 93 % 0.0 in
09:29 15.4 °F 14.3 °F 1026.0 in SSW 5.6 mph 5.6 mph 93 % 0.0 in
09:34 15.5 °F 14.4 °F 1026.0 in SW 5.6 mph 5.6 mph 93 % 0.0 in
09:39 15.7 °F 14.7 °F 1026.0 in SW 3.9 mph 3.9 mph 94 % 0.0 in
09:44 15.8 °F 14.8 °F 1026.0 in SW 1.9 mph   94 % 0.0 in
09:49 15.9 °F 14.9 °F 1026.0 in SW 3.7 mph 3.7 mph 94 % 0.0 in
09:54 16.2 °F 15.2 °F 1026.0 in SW 3.7 mph 3.7 mph 94 % 0.0 in
09:59 16.4 °F 15.6 °F 1026.0 in SW 2.6 mph 2.6 mph 95 % 0.0 in
10:04 16.6 °F 15.8 °F 1026.0 in SW 3.7 mph 3.7 mph 95 % 0.0 in
10:09 16.6 °F 15.6 °F 1026.0 in SW 3.9 mph 3.9 mph 94 % 0.0 in
10:14 16.9 °F 15.9 °F 1026.0 in SW 3.7 mph 3.7 mph 94 % 0.0 in
10:19 17.0 °F 15.8 °F 1026.0 in WSW 3.9 mph 3.9 mph 93 % 0.0 in
10:24 17.3 °F 16.2 °F 1026.0 in SW 3.7 mph 3.7 mph 93 % 0.0 in
10:29 17.8 °F 16.7 °F 1026.0 in NE 5.3 mph   93 % 0.0 in
10:34 18.0 °F 16.7 °F 1026.0 in NE 7.4 mph 7.4 mph 92 % 0.0 in
10:39 18.4 °F 16.7 °F 1026.0 in NE 5.6 mph 5.6 mph 90 % 0.0 in
10:44 18.6 °F 16.8 °F 1026.0 in ENE 5.3 mph 5.3 mph 89 % 0.0 in
10:49 18.9 °F 16.9 °F 1026.0 in ENE 7.4 mph 7.4 mph 88 % 0.0 in
10:54 19.1 °F 16.7 °F 1026.0 in NNE 7.4 mph 7.4 mph 86 % 0.0 in
11:00 19.5 °F 17.1 °F 1026.0 in NNE 5.0 mph 5.0 mph 86 % 0.0 in
11:05 19.9 °F 17.1 °F 1026.0 in East 3.7 mph 3.7 mph 84 % 0.0 in
11:10 19.9 °F 16.9 °F 1026.0 in ENE 7.4 mph 7.4 mph 83 % 0.0 in
11:15 20.0 °F 16.8 °F 1026.0 in East 5.6 mph 5.6 mph 82 % 0.0 in
11:20 20.2 °F 16.8 °F 1026.0 in ENE 3.7 mph 3.7 mph 81 % 0.0 in
11:25 20.8 °F 17.4 °F 1026.0 in ENE 4.7 mph 4.7 mph 81 % 0.0 in
11:30 20.8 °F 17.2 °F 1027.0 in ENE 5.6 mph 5.6 mph 80 % 0.0 in
11:35 21.0 °F 17.0 °F 1027.0 in ENE 3.7 mph 3.7 mph 78 % 0.0 in
11:40 21.3 °F 17.3 °F 1027.0 in NNE 3.7 mph 3.7 mph 78 % 0.0 in
11:46 21.4 °F 17.2 °F 1026.0 in ENE 3.7 mph 3.7 mph 77 % 0.0 in
11:51 21.5 °F 17.1 °F 1026.0 in East 3.7 mph 3.7 mph 76 % 0.0 in
11:56 21.7 °F 17.3 °F 1026.0 in East 3.7 mph 3.7 mph 76 % 0.0 in
12:01 21.6 °F 17.0 °F 1026.0 in ENE 5.6 mph 5.6 mph 75 % 0.0 in
12:06 21.8 °F 16.9 °F 1026.0 in ESE 5.8 mph 5.8 mph 74 % 0.0 in
12:11 21.8 °F 17.2 °F 1026.0 in East 5.0 mph 5.0 mph 75 % 0.0 in
12:16 22.1 °F 17.1 °F 1026.0 in NNE 5.6 mph 5.6 mph 73 % 0.0 in
12:21 22.6 °F 17.7 °F 1026.0 in NNE 5.6 mph 5.6 mph 74 % 0.0 in
12:26 22.6 °F 17.5 °F 1026.0 in NNE 3.7 mph 3.7 mph 73 % 0.0 in
12:31 22.5 °F 17.2 °F 1026.0 in ENE 3.7 mph   72 % 0.0 in
12:36 23.0 °F 17.4 °F 1026.0 in ENE 6.1 mph 6.1 mph 71 % 0.0 in
12:41 23.3 °F 17.5 °F 1026.0 in ESE 5.8 mph 5.8 mph 70 % 0.0 in
12:46 23.2 °F 16.9 °F 1026.0 in SSE 7.4 mph 7.4 mph 68 % 0.0 in
12:51 23.0 °F 17.0 °F 1026.0 in SE 7.4 mph 7.4 mph 69 % 0.0 in
12:56 23.4 °F 17.6 °F 1026.0 in ESE 2.6 mph   70 % 0.0 in
13:01 23.7 °F 17.7 °F 1026.0 in SE 5.6 mph 5.6 mph 69 % 0.0 in
13:06 23.5 °F 17.0 °F 1026.0 in ESE 9.3 mph 9.3 mph 67 % 0.0 in
13:11 24.1 °F 17.3 °F 1026.0 in West 5.6 mph 5.6 mph 66 % 0.0 in
13:16 24.2 °F 17.2 °F 1026.0 in NE 4.2 mph 4.2 mph 65 % 0.0 in
13:21 24.2 °F 17.4 °F 1026.0 in NNE 5.6 mph 5.6 mph 66 % 0.0 in
13:26 24.6 °F 17.6 °F 1026.0 in ENE 6.4 mph 6.4 mph 65 % 0.0 in
13:31 24.4 °F 17.6 °F 1026.0 in NE 5.6 mph 5.6 mph 66 % 0.0 in
13:36 24.9 °F 17.6 °F 1026.0 in SSW 9.3 mph 9.3 mph 64 % 0.0 in
13:41 24.5 °F 17.2 °F 1026.0 in ENE 6.4 mph 6.4 mph 64 % 0.0 in
13:46 24.5 °F 17.0 °F 1026.0 in ESE 7.4 mph 7.4 mph 63 % 0.0 in
13:51 24.9 °F 17.4 °F 1026.0 in SE 3.7 mph 5.3 mph 63 % 0.0 in
13:56 24.9 °F 17.4 °F 1026.0 in East 7.6 mph 7.6 mph 63 % 0.0 in
14:02 25.0 °F 17.2 °F 1026.0 in SSE 7.4 mph 7.4 mph 62 % 0.0 in
14:07 25.1 °F 17.6 °F 1026.0 in North 3.7 mph 3.7 mph 63 % 0.0 in
14:12 25.5 °F 17.4 °F 1026.0 in ESE 5.6 mph 5.6 mph 61 % 0.0 in
14:17 25.4 °F 17.6 °F 1024.9 in ENE 3.7 mph 3.7 mph 62 % 0.0 in
14:22 25.3 °F 17.0 °F 1024.9 in East 5.8 mph 5.8 mph 60 % 0.0 in
14:27 25.2 °F 17.4 °F 1024.9 in NE 11.1 mph 11.1 mph 62 % 0.0 in
14:32 25.2 °F 16.9 °F 1023.9 in ESE 7.4 mph 7.4 mph 60 % 0.0 in
14:37 25.2 °F 17.2 °F 1023.9 in SSE 7.4 mph 7.9 mph 61 % 0.0 in
14:42 25.3 °F 17.2 °F 1023.9 in SE 7.6 mph 7.6 mph 61 % 0.0 in
14:47 25.4 °F 17.1 °F 1023.9 in East 11.1 mph 11.1 mph 60 % 0.0 in
14:52 25.0 °F 16.7 °F 1023.9 in SSW 9.3 mph 9.3 mph 60 % 0.0 in
14:57 25.2 °F 16.9 °F 1023.9 in South 7.6 mph 7.6 mph 60 % 0.0 in
15:02 25.0 °F 16.4 °F 1024.9 in ESE 13.0 mph 13.0 mph 59 % 0.0 in
15:07 25.1 °F 16.8 °F 1024.9 in ENE 9.3 mph 9.5 mph 60 % 0.0 in
15:12 25.1 °F 16.5 °F 1024.9 in SE 9.3 mph 9.3 mph 59 % 0.0 in
15:17 24.9 °F 16.6 °F 1023.9 in ENE 14.8 mph 14.8 mph 60 % 0.0 in
15:22 25.0 °F 16.7 °F 1023.9 in NNE 11.1 mph 11.1 mph 60 % 0.0 in
15:27 25.0 °F 16.4 °F 1023.9 in ENE 11.1 mph 11.1 mph 59 % 0.0 in
15:32 25.0 °F 16.4 °F 1023.9 in NNW 9.3 mph 9.3 mph 59 % 0.0 in
15:37 24.9 °F 16.6 °F 1023.9 in SE 14.8 mph 14.8 mph 60 % 0.0 in
15:42 24.9 °F 16.6 °F 1023.9 in ESE 10.0 mph 10.0 mph 60 % 0.0 in
15:47 24.8 °F 16.5 °F 1023.9 in ENE 13.0 mph 13.0 mph 60 % 0.0 in
15:52 24.7 °F 16.4 °F 1023.9 in ENE 11.1 mph 11.1 mph 60 % 0.0 in
15:57 24.7 °F 16.4 °F 1023.9 in ESE 13.0 mph 13.0 mph 60 % 0.0 in
16:02 24.8 °F 16.5 °F 1023.9 in NE 9.3 mph 10.0 mph 60 % 0.0 in
16:07 24.7 °F 16.4 °F 1023.9 in SE 11.9 mph 11.9 mph 60 % 0.0 in
16:12 24.7 °F 16.4 °F 1023.9 in ENE 9.3 mph 9.3 mph 60 % 0.0 in
16:17 24.8 °F 16.5 °F 1023.9 in ENE 13.0 mph 13.0 mph 60 % 0.0 in
16:22 24.8 °F 16.5 °F 1023.9 in ENE 12.2 mph 12.2 mph 60 % 0.0 in
16:27 24.7 °F 16.7 °F 1023.9 in ENE 14.8 mph 14.8 mph 61 % 0.0 in
16:32 24.8 °F 16.8 °F 1023.9 in ESE 13.0 mph 13.0 mph 61 % 0.0 in
16:37 24.6 °F 16.6 °F 1023.9 in ESE 16.7 mph 16.7 mph 61 % 0.0 in
16:42 24.5 °F 16.5 °F 1023.9 in ENE 11.1 mph 11.1 mph 61 % 0.0 in
16:47 24.6 °F 16.6 °F 1023.9 in SE 14.8 mph 14.8 mph 61 % 0.0 in
16:52 24.4 °F 16.4 °F 1023.9 in ESE 14.8 mph 14.8 mph 61 % 0.0 in
16:57 24.3 °F 16.6 °F 1023.9 in ESE 11.9 mph 11.9 mph 62 % 0.0 in
17:02 24.3 °F 16.6 °F 1023.9 in NE 7.4 mph 7.4 mph 62 % 0.0 in
17:07 24.3 °F 16.6 °F 1023.9 in SSE 11.1 mph 11.1 mph 62 % 0.0 in
17:12 24.2 °F 16.4 °F 1023.9 in ESE 12.6 mph 12.6 mph 62 % 0.0 in
17:17 24.3 °F 16.8 °F 1023.9 in SE 12.2 mph 12.2 mph 63 % 0.0 in
17:22 24.2 °F 16.7 °F 1023.9 in SE 9.5 mph 9.5 mph 63 % 0.0 in
17:27 23.9 °F 16.7 °F 1023.9 in NE 9.3 mph 9.3 mph 64 % 0.0 in
17:32 23.7 °F 16.5 °F 1023.9 in ENE 14.0 mph 14.0 mph 64 % 0.0 in
17:37 23.6 °F 16.6 °F 1023.9 in East 9.3 mph 9.3 mph 65 % 0.0 in
17:42 23.6 °F 16.6 °F 1023.9 in ESE 11.1 mph 11.1 mph 65 % 0.0 in
17:47 23.3 °F 16.3 °F 1023.9 in ESE 9.3 mph 9.3 mph 65 % 0.0 in
17:52 23.3 °F 16.3 °F 1023.9 in East 9.3 mph 9.3 mph 65 % 0.0 in
17:57 23.3 °F 16.3 °F 1023.9 in East 7.4 mph 7.4 mph 65 % 0.0 in
18:02 23.2 °F 16.3 °F 1023.9 in East 11.1 mph 11.1 mph 65 % 0.0 in
18:07 23.1 °F 16.4 °F 1023.9 in ESE 11.1 mph 11.1 mph 66 % 0.0 in
18:12 23.0 °F 16.3 °F 1023.9 in ENE 9.3 mph 9.3 mph 66 % 0.0 in
18:17 22.9 °F 16.2 °F 1023.9 in SE 9.3 mph 9.3 mph 66 % 0.0 in
18:22 22.8 °F 16.1 °F 1023.9 in ESE 7.4 mph 7.4 mph 66 % 0.0 in
18:27 22.7 °F 16.3 °F 1023.9 in ESE 9.3 mph 9.3 mph 67 % 0.0 in
18:32 22.6 °F 16.2 °F 1023.9 in East 9.3 mph 9.3 mph 67 % 0.0 in
18:37 22.5 °F 16.1 °F 1023.9 in East 5.6 mph 5.6 mph 67 % 0.0 in
18:42 22.4 °F 15.9 °F 1023.9 in East 7.4 mph 7.4 mph 67 % 0.0 in
18:47 22.4 °F 15.9 °F 1023.9 in SE 7.4 mph 7.4 mph 67 % 0.0 in
18:52 22.4 °F 15.9 °F 1023.9 in ESE 5.6 mph 5.6 mph 67 % 0.0 in
18:57 22.2 °F 15.8 °F 1023.9 in SSE 1.9 mph 1.9 mph 67 % 0.0 in
19:02 22.1 °F 15.7 °F 1023.9 in ESE 5.6 mph 5.6 mph 67 % 0.0 in
19:07 22.0 °F 15.6 °F 1023.9 in WSW 4.2 mph 4.2 mph 67 % 0.0 in
19:12 22.0 °F 15.6 °F 1024.9 in SSE 4.2 mph 4.2 mph 67 % 0.0 in
19:17 21.9 °F 15.7 °F 1024.9 in SSE 1.4 mph   68 % 0.0 in
19:22 21.7 °F 15.6 °F 1024.9 in SSE 3.9 mph 3.9 mph 68 % 0.0 in
19:27 21.6 °F 15.7 °F 1024.9 in SW 3.7 mph 3.7 mph 69 % 0.0 in
19:32 21.5 °F 15.6 °F 1024.9 in SW 3.7 mph   69 % 0.0 in
19:37 21.4 °F 15.5 °F 1024.9 in South 1.9 mph 1.9 mph 69 % 0.0 in
19:42 21.3 °F 15.6 °F 1026.0 in Calm     70 % 0.0 in
19:47 21.2 °F 15.5 °F 1026.0 in Calm     70 % 0.0 in
19:52 21.1 °F 15.4 °F 1026.0 in SW 1.9 mph   70 % 0.0 in
19:57 21.0 °F 15.6 °F 1026.0 in SW 1.4 mph 1.9 mph 71 % 0.0 in
20:02 20.9 °F 15.4 °F 1026.0 in SW 3.7 mph 3.7 mph 71 % 0.0 in
20:07 20.8 °F 15.3 °F 1026.0 in Calm     71 % 0.0 in
20:12 20.7 °F 15.3 °F 1026.0 in WSW 3.7 mph 3.7 mph 71 % 0.0 in
20:17 20.7 °F 15.4 °F 1026.0 in WSW 1.9 mph   72 % 0.0 in
20:22 20.6 °F 15.4 °F 1026.0 in WSW 1.9 mph   72 % 0.0 in
20:27 20.5 °F 15.3 °F 1026.0 in Calm     72 % 0.0 in
20:32 20.4 °F 15.4 °F 1026.0 in Calm     73 % 0.0 in
20:37 20.4 °F 15.4 °F 1026.0 in Calm     73 % 0.0 in
20:42 20.3 °F 15.3 °F 1026.0 in Calm     73 % 0.0 in
20:47 20.2 °F 15.2 °F 1026.0 in WNW 1.9 mph 1.9 mph 73 % 0.0 in
20:52 20.2 °F 15.4 °F 1026.0 in Calm     74 % 0.0 in
20:57 20.1 °F 15.3 °F 1026.0 in Calm     74 % 0.0 in
20:59 20.1 °F 15.3 °F 1026.0 in Calm     74 % 0.0 in
21:04 20.0 °F 15.4 °F 1026.0 in Calm     75 % 0.0 in
21:09 19.9 °F 15.6 °F 1026.0 in Calm     76 % 0.0 in
21:14 19.9 °F 15.6 °F 1026.0 in Calm     76 % 0.0 in
21:19 19.8 °F 15.4 °F 1026.0 in WNW 1.9 mph 1.9 mph 76 % 0.0 in
21:24 19.8 °F 15.4 °F 1026.0 in NW 1.9 mph   76 % 0.0 in
21:29 19.7 °F 15.3 °F 1024.9 in NW 3.7 mph   76 % 0.0 in
21:34 19.7 °F 15.6 °F 1024.9 in NW 1.9 mph   77 % 0.0 in
21:39 19.7 °F 15.3 °F 1024.9 in NW 3.7 mph 3.7 mph 76 % 0.0 in
21:44 19.6 °F 15.4 °F 1026.0 in Calm     77 % 0.0 in
21:49 19.6 °F 15.4 °F 1026.0 in NW 1.9 mph   77 % 0.0 in
21:54 19.6 °F 15.4 °F 1026.0 in Calm     77 % 0.0 in
21:59 19.6 °F 15.4 °F 1026.0 in Calm     77 % 0.0 in
22:04 19.6 °F 15.4 °F 1026.0 in Calm     77 % 0.0 in
22:09 19.6 °F 15.4 °F 1026.0 in Calm     77 % 0.0 in
22:14 19.6 °F 15.7 °F 1024.9 in North 1.9 mph 1.9 mph 78 % 0.0 in
22:19 19.6 °F 15.7 °F 1024.9 in North 1.9 mph   78 % 0.0 in
22:24 19.6 °F 15.7 °F 1024.9 in Calm     78 % 0.0 in
22:29 19.5 °F 15.6 °F 1026.0 in North 1.9 mph 1.9 mph 78 % 0.0 in
22:34 19.5 °F 15.6 °F 1026.0 in North 1.9 mph   78 % 0.0 in
22:39 19.4 °F 15.4 °F 1026.0 in Calm     78 % 0.0 in
22:44 19.3 °F 15.4 °F 1026.0 in Calm     78 % 0.0 in
22:49 19.3 °F 15.6 °F 1026.0 in Calm     79 % 0.0 in
22:54 19.2 °F 15.4 °F 1026.0 in Calm     79 % 0.0 in
22:59 19.1 °F 15.4 °F 1026.0 in Calm     79 % 0.0 in
23:04 19.0 °F 15.3 °F 1026.0 in Calm     79 % 0.0 in
23:09 19.0 °F 15.3 °F 1026.0 in NNW 1.9 mph   79 % 0.0 in
23:14 18.9 °F 15.4 °F 1026.0 in NNW 1.9 mph 1.9 mph 80 % 0.0 in
23:19 18.8 °F 15.3 °F 1026.0 in WNW 2.6 mph 2.6 mph 80 % 0.0 in
23:24 18.6 °F 15.1 °F 1026.0 in SW 3.7 mph 3.7 mph 80 % 0.0 in
23:29 18.4 °F 14.9 °F 1026.0 in WSW 3.7 mph 3.7 mph 80 % 0.0 in
23:34 18.3 °F 14.8 °F 1026.0 in SW 3.7 mph 3.7 mph 80 % 0.0 in
23:39 18.2 °F 14.9 °F 1026.0 in SW 3.7 mph 3.7 mph 81 % 0.0 in
23:44 18.2 °F 14.9 °F 1026.0 in SW 1.9 mph 1.9 mph 81 % 0.0 in
23:49 18.1 °F 15.0 °F 1026.0 in Calm     82 % 0.0 in
23:54 18.1 °F 15.0 °F 1026.0 in SW 3.2 mph 3.2 mph 82 % 0.0 in
23:59 18.1 °F 15.0 °F 1026.0 in SW 3.2 mph 3.2 mph 82 % 0.0 in
Meteo Sesrovires
Elogis d' Weather Underground - 4 mb

Guio original per  Jim McMurry - jmcmurry@mwt.net Adaptat per a la plantilla per  Wim van der Kuil - Leuven-Template.eu

Trobareu la nostra informacio del temps tambe a:

Weather Underground

AWEKAS